sensor_id;sensor_type;location;lat;lon;timestamp;P1;durP1;ratioP1;P2;durP2;ratioP2
4724;SDS011;2376;53.544;10.226;2022-11-12T00:00:28;14.33;;;10.90;;
4724;SDS011;2376;53.544;10.226;2022-11-12T00:02:55;13.30;;;11.43;;
4724;SDS011;2376;53.544;10.226;2022-11-12T00:05:22;15.87;;;11.80;;
4724;SDS011;2376;53.544;10.226;2022-11-12T00:07:49;13.83;;;11.93;;
4724;SDS011;2376;53.544;10.226;2022-11-12T00:10:16;15.87;;;11.77;;
4724;SDS011;2376;53.544;10.226;2022-11-12T00:12:44;17.83;;;12.47;;
4724;SDS011;2376;53.544;10.226;2022-11-12T00:15:11;15.80;;;11.13;;
4724;SDS011;2376;53.544;10.226;2022-11-12T00:17:37;13.17;;;11.93;;
4724;SDS011;2376;53.544;10.226;2022-11-12T00:20:06;13.30;;;11.03;;
4724;SDS011;2376;53.544;10.226;2022-11-12T00:22:33;13.40;;;11.50;;
4724;SDS011;2376;53.544;10.226;2022-11-12T00:25:00;16.93;;;13.00;;
4724;SDS011;2376;53.544;10.226;2022-11-12T00:27:27;14.00;;;10.93;;
4724;SDS011;2376;53.544;10.226;2022-11-12T00:29:55;14.07;;;12.10;;
4724;SDS011;2376;53.544;10.226;2022-11-12T00:32:21;21.83;;;11.53;;
4724;SDS011;2376;53.544;10.226;2022-11-12T00:34:48;14.23;;;12.70;;
4724;SDS011;2376;53.544;10.226;2022-11-12T00:37:15;16.53;;;12.47;;
4724;SDS011;2376;53.544;10.226;2022-11-12T00:39:42;17.00;;;12.03;;
4724;SDS011;2376;53.544;10.226;2022-11-12T00:42:09;14.37;;;12.83;;
4724;SDS011;2376;53.544;10.226;2022-11-12T00:44:36;16.93;;;14.27;;
4724;SDS011;2376;53.544;10.226;2022-11-12T00:47:04;16.80;;;13.00;;
4724;SDS011;2376;53.544;10.226;2022-11-12T00:49:31;14.80;;;13.00;;
4724;SDS011;2376;53.544;10.226;2022-11-12T00:51:57;16.23;;;14.13;;
4724;SDS011;2376;53.544;10.226;2022-11-12T00:54:24;16.40;;;12.30;;
4724;SDS011;2376;53.544;10.226;2022-11-12T00:56:51;14.87;;;13.33;;
4724;SDS011;2376;53.544;10.226;2022-11-12T00:59:17;15.00;;;12.43;;
4724;SDS011;2376;53.544;10.226;2022-11-12T01:01:44;17.00;;;11.97;;
4724;SDS011;2376;53.544;10.226;2022-11-12T01:04:12;24.57;;;12.07;;
4724;SDS011;2376;53.544;10.226;2022-11-12T01:06:39;13.97;;;12.10;;
4724;SDS011;2376;53.544;10.226;2022-11-12T01:09:05;16.73;;;11.70;;
4724;SDS011;2376;53.544;10.226;2022-11-12T01:11:33;16.67;;;12.73;;
4724;SDS011;2376;53.544;10.226;2022-11-12T01:14:00;20.03;;;11.40;;
4724;SDS011;2376;53.544;10.226;2022-11-12T01:16:29;14.37;;;11.80;;
4724;SDS011;2376;53.544;10.226;2022-11-12T01:18:59;12.83;;;11.13;;
4724;SDS011;2376;53.544;10.226;2022-11-12T01:21:29;14.80;;;12.03;;
4724;SDS011;2376;53.544;10.226;2022-11-12T01:23:58;13.27;;;10.97;;
4724;SDS011;2376;53.544;10.226;2022-11-12T01:26:26;12.30;;;10.83;;
4724;SDS011;2376;53.544;10.226;2022-11-12T01:28:53;11.60;;;10.40;;
4724;SDS011;2376;53.544;10.226;2022-11-12T01:31:21;11.27;;;9.33;;
4724;SDS011;2376;53.544;10.226;2022-11-12T01:33:52;12.20;;;10.90;;
4724;SDS011;2376;53.544;10.226;2022-11-12T01:36:20;11.80;;;10.13;;
4724;SDS011;2376;53.544;10.226;2022-11-12T01:38:48;15.80;;;10.60;;
4724;SDS011;2376;53.544;10.226;2022-11-12T01:41:17;13.70;;;9.43;;
4724;SDS011;2376;53.544;10.226;2022-11-12T01:43:47;13.27;;;10.80;;
4724;SDS011;2376;53.544;10.226;2022-11-12T01:46:31;10.27;;;9.17;;
4724;SDS011;2376;53.544;10.226;2022-11-12T01:49:01;13.13;;;9.77;;
4724;SDS011;2376;53.544;10.226;2022-11-12T01:51:31;14.50;;;11.03;;
4724;SDS011;2376;53.544;10.226;2022-11-12T01:54:04;12.57;;;9.70;;
4724;SDS011;2376;53.544;10.226;2022-11-12T01:56:35;11.30;;;9.67;;
4724;SDS011;2376;53.544;10.226;2022-11-12T01:59:03;10.27;;;8.83;;
4724;SDS011;2376;53.544;10.226;2022-11-12T02:01:34;11.43;;;10.33;;
4724;SDS011;2376;53.544;10.226;2022-11-12T02:04:03;11.67;;;10.17;;
4724;SDS011;2376;53.544;10.226;2022-11-12T02:06:29;10.80;;;9.67;;
4724;SDS011;2376;53.544;10.226;2022-11-12T02:08:57;10.70;;;9.60;;
4724;SDS011;2376;53.544;10.226;2022-11-12T02:11:26;10.97;;;9.60;;
4724;SDS011;2376;53.544;10.226;2022-11-12T02:13:52;10.30;;;8.60;;
4724;SDS011;2376;53.544;10.226;2022-11-12T02:16:22;10.17;;;9.07;;
4724;SDS011;2376;53.544;10.226;2022-11-12T02:18:49;11.40;;;10.17;;
4724;SDS011;2376;53.544;10.226;2022-11-12T02:21:18;11.57;;;10.23;;
4724;SDS011;2376;53.544;10.226;2022-11-12T02:23:45;10.80;;;9.67;;
4724;SDS011;2376;53.544;10.226;2022-11-12T02:26:12;9.80;;;8.43;;
4724;SDS011;2376;53.544;10.226;2022-11-12T02:28:38;15.10;;;10.30;;
4724;SDS011;2376;53.544;10.226;2022-11-12T02:31:05;15.13;;;9.70;;
4724;SDS011;2376;53.544;10.226;2022-11-12T02:33:32;11.53;;;9.90;;
4724;SDS011;2376;53.544;10.226;2022-11-12T02:35:59;12.47;;;10.03;;
4724;SDS011;2376;53.544;10.226;2022-11-12T02:38:26;11.47;;;9.27;;
4724;SDS011;2376;53.544;10.226;2022-11-12T02:40:53;10.87;;;9.20;;
4724;SDS011;2376;53.544;10.226;2022-11-12T02:43:20;11.80;;;9.53;;
4724;SDS011;2376;53.544;10.226;2022-11-12T02:45:46;13.67;;;10.43;;
4724;SDS011;2376;53.544;10.226;2022-11-12T02:48:13;12.57;;;11.27;;
4724;SDS011;2376;53.544;10.226;2022-11-12T02:50:40;11.63;;;10.47;;
4724;SDS011;2376;53.544;10.226;2022-11-12T02:53:06;27.40;;;11.43;;
4724;SDS011;2376;53.544;10.226;2022-11-12T02:55:34;11.97;;;10.77;;
4724;SDS011;2376;53.544;10.226;2022-11-12T02:58:01;14.10;;;10.17;;
4724;SDS011;2376;53.544;10.226;2022-11-12T03:00:28;11.80;;;10.73;;
4724;SDS011;2376;53.544;10.226;2022-11-12T03:02:54;11.27;;;10.20;;
4724;SDS011;2376;53.544;10.226;2022-11-12T03:05:24;13.83;;;11.00;;
4724;SDS011;2376;53.544;10.226;2022-11-12T03:07:54;11.97;;;10.77;;
4724;SDS011;2376;53.544;10.226;2022-11-12T03:10:22;9.67;;;8.67;;
4724;SDS011;2376;53.544;10.226;2022-11-12T03:12:51;9.73;;;8.70;;
4724;SDS011;2376;53.544;10.226;2022-11-12T03:15:17;13.50;;;8.97;;
4724;SDS011;2376;53.544;10.226;2022-11-12T03:17:45;12.80;;;9.40;;
4724;SDS011;2376;53.544;10.226;2022-11-12T03:20:11;11.43;;;10.20;;
4724;SDS011;2376;53.544;10.226;2022-11-12T03:22:38;9.47;;;8.57;;
4724;SDS011;2376;53.544;10.226;2022-11-12T03:25:06;11.50;;;9.90;;
4724;SDS011;2376;53.544;10.226;2022-11-12T03:27:33;10.57;;;9.57;;
4724;SDS011;2376;53.544;10.226;2022-11-12T03:30:02;10.87;;;9.77;;
4724;SDS011;2376;53.544;10.226;2022-11-12T03:32:29;10.97;;;9.83;;
4724;SDS011;2376;53.544;10.226;2022-11-12T03:34:56;14.40;;;9.37;;
4724;SDS011;2376;53.544;10.226;2022-11-12T03:37:22;10.70;;;9.70;;
4724;SDS011;2376;53.544;10.226;2022-11-12T03:39:49;10.30;;;9.23;;
4724;SDS011;2376;53.544;10.226;2022-11-12T03:42:16;10.37;;;9.37;;
4724;SDS011;2376;53.544;10.226;2022-11-12T03:44:42;12.73;;;9.83;;
4724;SDS011;2376;53.544;10.226;2022-11-12T03:47:10;16.17;;;10.97;;
4724;SDS011;2376;53.544;10.226;2022-11-12T03:49:37;11.60;;;9.63;;
4724;SDS011;2376;53.544;10.226;2022-11-12T03:52:04;14.63;;;10.50;;
4724;SDS011;2376;53.544;10.226;2022-11-12T03:54:30;13.03;;;11.70;;
4724;SDS011;2376;53.544;10.226;2022-11-12T03:56:57;14.50;;;10.53;;
4724;SDS011;2376;53.544;10.226;2022-11-12T03:59:24;12.80;;;10.80;;
4724;SDS011;2376;53.544;10.226;2022-11-12T04:01:50;13.73;;;10.77;;
4724;SDS011;2376;53.544;10.226;2022-11-12T04:04:18;11.57;;;10.47;;
4724;SDS011;2376;53.544;10.226;2022-11-12T04:06:45;13.13;;;10.80;;
4724;SDS011;2376;53.544;10.226;2022-11-12T04:09:37;12.13;;;10.93;;
4724;SDS011;2376;53.544;10.226;2022-11-12T04:12:04;14.17;;;11.57;;
4724;SDS011;2376;53.544;10.226;2022-11-12T04:14:44;11.77;;;10.60;;
4724;SDS011;2376;53.544;10.226;2022-11-12T04:17:11;12.07;;;10.97;;
4724;SDS011;2376;53.544;10.226;2022-11-12T04:19:57;16.33;;;11.40;;
4724;SDS011;2376;53.544;10.226;2022-11-12T04:22:41;12.77;;;11.40;;
4724;SDS011;2376;53.544;10.226;2022-11-12T04:25:08;14.70;;;11.60;;
4724;SDS011;2376;53.544;10.226;2022-11-12T04:27:52;13.53;;;11.97;;
4724;SDS011;2376;53.544;10.226;2022-11-12T04:30:19;14.03;;;11.63;;
4724;SDS011;2376;53.544;10.226;2022-11-12T04:32:45;12.63;;;11.37;;
4724;SDS011;2376;53.544;10.226;2022-11-12T04:35:16;14.63;;;12.50;;
4724;SDS011;2376;53.544;10.226;2022-11-12T04:37:43;13.03;;;11.13;;
4724;SDS011;2376;53.544;10.226;2022-11-12T04:40:11;19.33;;;12.23;;
4724;SDS011;2376;53.544;10.226;2022-11-12T04:43:01;15.77;;;12.20;;
4724;SDS011;2376;53.544;10.226;2022-11-12T04:45:47;13.43;;;12.13;;
4724;SDS011;2376;53.544;10.226;2022-11-12T04:48:16;15.17;;;11.33;;
4724;SDS011;2376;53.544;10.226;2022-11-12T04:50:45;14.13;;;12.20;;
4724;SDS011;2376;53.544;10.226;2022-11-12T04:53:14;11.10;;;10.00;;
4724;SDS011;2376;53.544;10.226;2022-11-12T04:55:41;14.00;;;11.23;;
4724;SDS011;2376;53.544;10.226;2022-11-12T04:58:07;11.97;;;10.73;;
4724;SDS011;2376;53.544;10.226;2022-11-12T05:00:34;11.97;;;10.57;;
4724;SDS011;2376;53.544;10.226;2022-11-12T05:03:01;14.40;;;12.90;;
4724;SDS011;2376;53.544;10.226;2022-11-12T05:05:27;14.30;;;12.13;;
4724;SDS011;2376;53.544;10.226;2022-11-12T05:07:57;10.83;;;9.73;;
4724;SDS011;2376;53.544;10.226;2022-11-12T05:10:24;13.90;;;9.80;;
4724;SDS011;2376;53.544;10.226;2022-11-12T05:12:51;11.20;;;10.00;;
4724;SDS011;2376;53.544;10.226;2022-11-12T05:15:17;12.17;;;10.60;;
4724;SDS011;2376;53.544;10.226;2022-11-12T05:17:44;13.57;;;12.13;;
4724;SDS011;2376;53.544;10.226;2022-11-12T05:20:11;11.30;;;10.20;;
4724;SDS011;2376;53.544;10.226;2022-11-12T05:22:39;11.50;;;10.30;;
4724;SDS011;2376;53.544;10.226;2022-11-12T05:25:07;11.80;;;10.07;;
4724;SDS011;2376;53.544;10.226;2022-11-12T05:27:34;14.33;;;10.10;;
4724;SDS011;2376;53.544;10.226;2022-11-12T05:30:01;14.30;;;11.63;;
4724;SDS011;2376;53.544;10.226;2022-11-12T05:32:28;13.17;;;11.87;;
4724;SDS011;2376;53.544;10.226;2022-11-12T05:34:55;12.33;;;10.83;;
4724;SDS011;2376;53.544;10.226;2022-11-12T05:37:22;10.87;;;9.77;;
4724;SDS011;2376;53.544;10.226;2022-11-12T05:39:48;11.77;;;10.60;;
4724;SDS011;2376;53.544;10.226;2022-11-12T05:42:16;11.67;;;10.57;;
4724;SDS011;2376;53.544;10.226;2022-11-12T05:44:43;15.43;;;10.37;;
4724;SDS011;2376;53.544;10.226;2022-11-12T05:47:10;15.20;;;10.40;;
4724;SDS011;2376;53.544;10.226;2022-11-12T05:49:36;10.90;;;9.90;;
4724;SDS011;2376;53.544;10.226;2022-11-12T05:52:03;11.33;;;10.33;;
4724;SDS011;2376;53.544;10.226;2022-11-12T05:54:30;15.50;;;13.30;;
4724;SDS011;2376;53.544;10.226;2022-11-12T05:56:56;22.60;;;16.50;;
4724;SDS011;2376;53.544;10.226;2022-11-12T05:59:24;27.43;;;17.43;;
4724;SDS011;2376;53.544;10.226;2022-11-12T06:01:51;15.27;;;13.47;;
4724;SDS011;2376;53.544;10.226;2022-11-12T06:04:18;17.20;;;13.10;;
4724;SDS011;2376;53.544;10.226;2022-11-12T06:06:46;18.00;;;14.87;;
4724;SDS011;2376;53.544;10.226;2022-11-12T06:09:12;16.40;;;14.00;;
4724;SDS011;2376;53.544;10.226;2022-11-12T06:11:39;15.53;;;13.20;;
4724;SDS011;2376;53.544;10.226;2022-11-12T06:14:06;15.57;;;13.23;;
4724;SDS011;2376;53.544;10.226;2022-11-12T06:16:34;16.30;;;13.50;;
4724;SDS011;2376;53.544;10.226;2022-11-12T06:19:00;15.33;;;12.67;;
4724;SDS011;2376;53.544;10.226;2022-11-12T06:21:27;12.97;;;11.67;;
4724;SDS011;2376;53.544;10.226;2022-11-12T06:23:54;15.83;;;11.73;;
4724;SDS011;2376;53.544;10.226;2022-11-12T06:26:22;17.13;;;11.20;;
4724;SDS011;2376;53.544;10.226;2022-11-12T06:28:50;10.40;;;9.30;;
4724;SDS011;2376;53.544;10.226;2022-11-12T06:31:17;13.17;;;11.43;;
4724;SDS011;2376;53.544;10.226;2022-11-12T06:33:46;15.90;;;11.73;;
4724;SDS011;2376;53.544;10.226;2022-11-12T06:36:14;12.07;;;10.80;;
4724;SDS011;2376;53.544;10.226;2022-11-12T06:38:42;14.10;;;11.90;;
4724;SDS011;2376;53.544;10.226;2022-11-12T06:41:10;13.13;;;11.57;;
4724;SDS011;2376;53.544;10.226;2022-11-12T06:43:37;13.50;;;10.93;;
4724;SDS011;2376;53.544;10.226;2022-11-12T06:46:05;11.83;;;10.50;;
4724;SDS011;2376;53.544;10.226;2022-11-12T06:48:33;12.43;;;10.33;;
4724;SDS011;2376;53.544;10.226;2022-11-12T06:51:11;12.00;;;10.47;;
4724;SDS011;2376;53.544;10.226;2022-11-12T06:53:41;13.13;;;10.50;;
4724;SDS011;2376;53.544;10.226;2022-11-12T06:56:08;13.30;;;10.87;;
4724;SDS011;2376;53.544;10.226;2022-11-12T06:58:35;15.33;;;13.27;;
4724;SDS011;2376;53.544;10.226;2022-11-12T07:01:03;12.97;;;11.67;;
4724;SDS011;2376;53.544;10.226;2022-11-12T07:03:31;11.50;;;10.30;;
4724;SDS011;2376;53.544;10.226;2022-11-12T07:06:01;12.53;;;10.10;;
4724;SDS011;2376;53.544;10.226;2022-11-12T07:08:30;14.00;;;11.30;;
4724;SDS011;2376;53.544;10.226;2022-11-12T07:10:57;14.83;;;11.50;;
4724;SDS011;2376;53.544;10.226;2022-11-12T07:13:23;13.90;;;12.10;;
4724;SDS011;2376;53.544;10.226;2022-11-12T07:15:50;15.37;;;11.87;;
4724;SDS011;2376;53.544;10.226;2022-11-12T07:18:17;14.60;;;10.90;;
4724;SDS011;2376;53.544;10.226;2022-11-12T07:20:43;13.13;;;11.60;;
4724;SDS011;2376;53.544;10.226;2022-11-12T07:23:10;13.20;;;11.20;;
4724;SDS011;2376;53.544;10.226;2022-11-12T07:25:38;12.93;;;11.63;;
4724;SDS011;2376;53.544;10.226;2022-11-12T07:28:05;12.67;;;11.37;;
4724;SDS011;2376;53.544;10.226;2022-11-12T07:30:31;14.23;;;10.37;;
4724;SDS011;2376;53.544;10.226;2022-11-12T07:32:58;12.80;;;10.80;;
4724;SDS011;2376;53.544;10.226;2022-11-12T07:35:24;12.90;;;11.60;;
4724;SDS011;2376;53.544;10.226;2022-11-12T07:37:51;13.30;;;11.13;;
4724;SDS011;2376;53.544;10.226;2022-11-12T07:40:18;14.17;;;11.83;;
4724;SDS011;2376;53.544;10.226;2022-11-12T07:42:47;13.37;;;12.03;;
4724;SDS011;2376;53.544;10.226;2022-11-12T07:45:14;15.40;;;11.00;;
4724;SDS011;2376;53.544;10.226;2022-11-12T07:47:40;11.57;;;10.20;;
4724;SDS011;2376;53.544;10.226;2022-11-12T07:50:07;13.90;;;11.60;;
4724;SDS011;2376;53.544;10.226;2022-11-12T07:52:34;13.40;;;12.00;;
4724;SDS011;2376;53.544;10.226;2022-11-12T07:55:01;13.27;;;11.30;;
4724;SDS011;2376;53.544;10.226;2022-11-12T07:57:28;12.70;;;11.43;;
4724;SDS011;2376;53.544;10.226;2022-11-12T07:59:58;15.20;;;12.03;;
4724;SDS011;2376;53.544;10.226;2022-11-12T08:02:25;17.37;;;13.00;;
4724;SDS011;2376;53.544;10.226;2022-11-12T08:04:52;12.60;;;11.20;;
4724;SDS011;2376;53.544;10.226;2022-11-12T08:07:18;13.13;;;10.60;;
4724;SDS011;2376;53.544;10.226;2022-11-12T08:09:45;14.33;;;12.30;;
4724;SDS011;2376;53.544;10.226;2022-11-12T08:12:11;14.43;;;11.87;;
4724;SDS011;2376;53.544;10.226;2022-11-12T08:14:38;13.87;;;11.73;;
4724;SDS011;2376;53.544;10.226;2022-11-12T08:17:06;17.60;;;11.23;;
4724;SDS011;2376;53.544;10.226;2022-11-12T08:19:32;10.57;;;9.47;;
4724;SDS011;2376;53.544;10.226;2022-11-12T08:21:59;11.57;;;9.00;;
4724;SDS011;2376;53.544;10.226;2022-11-12T08:24:26;12.57;;;10.33;;
4724;SDS011;2376;53.544;10.226;2022-11-12T08:26:53;13.40;;;10.93;;
4724;SDS011;2376;53.544;10.226;2022-11-12T08:29:19;10.87;;;9.80;;
4724;SDS011;2376;53.544;10.226;2022-11-12T08:31:47;17.53;;;9.70;;
4724;SDS011;2376;53.544;10.226;2022-11-12T08:34:15;12.53;;;10.00;;
4724;SDS011;2376;53.544;10.226;2022-11-12T08:36:42;11.03;;;9.00;;
4724;SDS011;2376;53.544;10.226;2022-11-12T08:39:08;9.60;;;8.67;;
4724;SDS011;2376;53.544;10.226;2022-11-12T08:41:35;8.73;;;7.90;;
4724;SDS011;2376;53.544;10.226;2022-11-12T08:44:02;9.80;;;8.20;;
4724;SDS011;2376;53.544;10.226;2022-11-12T08:46:29;9.20;;;8.37;;
4724;SDS011;2376;53.544;10.226;2022-11-12T08:48:56;9.13;;;8.20;;
4724;SDS011;2376;53.544;10.226;2022-11-12T08:51:24;13.40;;;8.33;;
4724;SDS011;2376;53.544;10.226;2022-11-12T08:53:50;9.40;;;8.40;;
4724;SDS011;2376;53.544;10.226;2022-11-12T08:56:17;14.13;;;8.10;;
4724;SDS011;2376;53.544;10.226;2022-11-12T08:58:44;7.87;;;7.07;;
4724;SDS011;2376;53.544;10.226;2022-11-12T09:01:10;21.23;;;9.77;;
4724;SDS011;2376;53.544;10.226;2022-11-12T09:03:37;8.40;;;7.67;;
4724;SDS011;2376;53.544;10.226;2022-11-12T09:06:04;8.57;;;7.30;;
4724;SDS011;2376;53.544;10.226;2022-11-12T09:08:33;9.77;;;8.30;;
4724;SDS011;2376;53.544;10.226;2022-11-12T09:11:01;9.67;;;8.73;;
4724;SDS011;2376;53.544;10.226;2022-11-12T09:13:28;9.63;;;8.63;;
4724;SDS011;2376;53.544;10.226;2022-11-12T09:15:58;11.17;;;8.53;;
4724;SDS011;2376;53.544;10.226;2022-11-12T09:18:26;9.00;;;7.43;;
4724;SDS011;2376;53.544;10.226;2022-11-12T09:20:52;8.87;;;7.23;;
4724;SDS011;2376;53.544;10.226;2022-11-12T09:23:19;10.43;;;7.93;;
4724;SDS011;2376;53.544;10.226;2022-11-12T09:25:47;10.03;;;7.70;;
4724;SDS011;2376;53.544;10.226;2022-11-12T09:28:14;10.17;;;8.37;;
4724;SDS011;2376;53.544;10.226;2022-11-12T09:30:42;8.97;;;8.17;;
4724;SDS011;2376;53.544;10.226;2022-11-12T09:33:10;7.90;;;7.20;;
4724;SDS011;2376;53.544;10.226;2022-11-12T09:35:37;7.37;;;6.63;;
4724;SDS011;2376;53.544;10.226;2022-11-12T09:38:04;7.90;;;7.23;;
4724;SDS011;2376;53.544;10.226;2022-11-12T09:40:38;8.13;;;6.93;;
4724;SDS011;2376;53.544;10.226;2022-11-12T09:43:15;10.07;;;7.43;;
4724;SDS011;2376;53.544;10.226;2022-11-12T09:45:47;8.77;;;7.23;;
4724;SDS011;2376;53.544;10.226;2022-11-12T09:48:15;7.87;;;7.17;;
4724;SDS011;2376;53.544;10.226;2022-11-12T09:50:49;12.10;;;7.07;;
4724;SDS011;2376;53.544;10.226;2022-11-12T09:53:25;8.30;;;6.97;;
4724;SDS011;2376;53.544;10.226;2022-11-12T09:55:59;10.33;;;6.93;;
4724;SDS011;2376;53.544;10.226;2022-11-12T09:58:31;7.03;;;6.43;;
4724;SDS011;2376;53.544;10.226;2022-11-12T10:01:00;8.17;;;7.37;;
4724;SDS011;2376;53.544;10.226;2022-11-12T10:03:33;7.73;;;7.00;;
4724;SDS011;2376;53.544;10.226;2022-11-12T10:06:05;10.60;;;7.10;;
4724;SDS011;2376;53.544;10.226;2022-11-12T10:08:38;14.13;;;7.30;;
4724;SDS011;2376;53.544;10.226;2022-11-12T10:11:18;10.77;;;7.23;;
4724;SDS011;2376;53.544;10.226;2022-11-12T10:13:56;10.63;;;7.20;;
4724;SDS011;2376;53.544;10.226;2022-11-12T10:16:39;9.60;;;8.20;;
4724;SDS011;2376;53.544;10.226;2022-11-12T10:19:17;8.70;;;7.80;;
4724;SDS011;2376;53.544;10.226;2022-11-12T10:21:56;9.83;;;8.17;;
4724;SDS011;2376;53.544;10.226;2022-11-12T10:24:32;9.57;;;8.50;;
4724;SDS011;2376;53.544;10.226;2022-11-12T10:27:00;13.20;;;7.87;;
4724;SDS011;2376;53.544;10.226;2022-11-12T10:29:30;10.80;;;8.03;;
4724;SDS011;2376;53.544;10.226;2022-11-12T10:32:07;13.20;;;8.00;;
4724;SDS011;2376;53.544;10.226;2022-11-12T10:34:38;9.23;;;8.10;;
4724;SDS011;2376;53.544;10.226;2022-11-12T10:37:06;8.63;;;7.70;;
4724;SDS011;2376;53.544;10.226;2022-11-12T10:39:38;8.20;;;7.53;;
4724;SDS011;2376;53.544;10.226;2022-11-12T10:42:09;8.23;;;7.10;;
4724;SDS011;2376;53.544;10.226;2022-11-12T10:44:39;12.93;;;8.20;;
4724;SDS011;2376;53.544;10.226;2022-11-12T10:47:24;9.73;;;8.73;;
4724;SDS011;2376;53.544;10.226;2022-11-12T10:52:53;9.60;;;8.70;;
4724;SDS011;2376;53.544;10.226;2022-11-12T10:55:23;8.63;;;7.83;;
4724;SDS011;2376;53.544;10.226;2022-11-12T10:58:04;9.10;;;8.30;;
4724;SDS011;2376;53.544;10.226;2022-11-12T11:00:39;11.23;;;8.57;;
4724;SDS011;2376;53.544;10.226;2022-11-12T11:03:18;9.33;;;8.43;;
4724;SDS011;2376;53.544;10.226;2022-11-12T11:05:49;9.07;;;8.17;;
4724;SDS011;2376;53.544;10.226;2022-11-12T11:08:30;10.60;;;8.50;;
4724;SDS011;2376;53.544;10.226;2022-11-12T11:11:09;10.20;;;9.00;;
4724;SDS011;2376;53.544;10.226;2022-11-12T11:13:42;8.70;;;7.80;;
4724;SDS011;2376;53.544;10.226;2022-11-12T11:16:11;8.30;;;7.50;;
4724;SDS011;2376;53.544;10.226;2022-11-12T11:18:40;9.03;;;7.77;;
4724;SDS011;2376;53.544;10.226;2022-11-12T11:21:13;8.87;;;7.97;;
4724;SDS011;2376;53.544;10.226;2022-11-12T11:24:20;10.53;;;8.30;;
4724;SDS011;2376;53.544;10.226;2022-11-12T11:26:54;9.17;;;8.27;;
4724;SDS011;2376;53.544;10.226;2022-11-12T11:29:31;11.33;;;8.33;;
4724;SDS011;2376;53.544;10.226;2022-11-12T11:32:10;12.30;;;8.83;;
4724;SDS011;2376;53.544;10.226;2022-11-12T11:34:48;11.37;;;7.93;;
4724;SDS011;2376;53.544;10.226;2022-11-12T11:37:23;10.43;;;8.57;;
4724;SDS011;2376;53.544;10.226;2022-11-12T11:39:54;8.83;;;6.83;;
4724;SDS011;2376;53.544;10.226;2022-11-12T11:42:38;9.37;;;7.63;;
4724;SDS011;2376;53.544;10.226;2022-11-12T11:45:18;10.97;;;7.80;;
4724;SDS011;2376;53.544;10.226;2022-11-12T11:47:56;10.70;;;8.10;;
4724;SDS011;2376;53.544;10.226;2022-11-12T11:50:28;10.53;;;8.57;;
4724;SDS011;2376;53.544;10.226;2022-11-12T11:53:01;9.70;;;8.10;;
4724;SDS011;2376;53.544;10.226;2022-11-12T11:55:41;9.20;;;8.30;;
4724;SDS011;2376;53.544;10.226;2022-11-12T11:58:19;9.27;;;8.07;;
4724;SDS011;2376;53.544;10.226;2022-11-12T12:01:03;9.83;;;8.50;;
4724;SDS011;2376;53.544;10.226;2022-11-12T12:03:44;7.60;;;6.83;;
4724;SDS011;2376;53.544;10.226;2022-11-12T12:06:25;9.63;;;7.97;;
4724;SDS011;2376;53.544;10.226;2022-11-12T12:08:59;11.23;;;7.70;;
4724;SDS011;2376;53.544;10.226;2022-11-12T12:11:35;8.20;;;6.50;;
4724;SDS011;2376;53.544;10.226;2022-11-12T12:14:11;7.40;;;6.70;;
4724;SDS011;2376;53.544;10.226;2022-11-12T12:16:55;8.50;;;6.97;;
4724;SDS011;2376;53.544;10.226;2022-11-12T12:19:37;7.43;;;5.87;;
4724;SDS011;2376;53.544;10.226;2022-11-12T12:22:12;8.00;;;5.97;;
4724;SDS011;2376;53.544;10.226;2022-11-12T12:24:44;7.60;;;6.87;;
4724;SDS011;2376;53.544;10.226;2022-11-12T12:27:15;7.80;;;6.30;;
4724;SDS011;2376;53.544;10.226;2022-11-12T12:29:47;8.50;;;6.97;;
4724;SDS011;2376;53.544;10.226;2022-11-12T12:32:17;7.80;;;7.10;;
4724;SDS011;2376;53.544;10.226;2022-11-12T12:34:50;12.80;;;6.93;;
4724;SDS011;2376;53.544;10.226;2022-11-12T12:37:21;10.40;;;7.57;;
4724;SDS011;2376;53.544;10.226;2022-11-12T12:39:52;8.90;;;8.00;;
4724;SDS011;2376;53.544;10.226;2022-11-12T12:42:27;8.47;;;7.53;;
4724;SDS011;2376;53.544;10.226;2022-11-12T12:44:59;7.23;;;6.63;;
4724;SDS011;2376;53.544;10.226;2022-11-12T12:47:38;7.53;;;6.80;;
4724;SDS011;2376;53.544;10.226;2022-11-12T12:50:11;8.73;;;7.83;;
4724;SDS011;2376;53.544;10.226;2022-11-12T12:53:00;10.60;;;7.60;;
4724;SDS011;2376;53.544;10.226;2022-11-12T12:55:35;11.20;;;6.93;;
4724;SDS011;2376;53.544;10.226;2022-11-12T12:58:03;8.00;;;7.20;;
4724;SDS011;2376;53.544;10.226;2022-11-12T13:00:40;7.77;;;6.87;;
4724;SDS011;2376;53.544;10.226;2022-11-12T13:03:13;13.80;;;8.43;;
4724;SDS011;2376;53.544;10.226;2022-11-12T13:06:28;9.80;;;8.33;;
4724;SDS011;2376;53.544;10.226;2022-11-12T13:08:59;10.47;;;7.80;;
4724;SDS011;2376;53.544;10.226;2022-11-12T13:11:47;11.47;;;7.37;;
4724;SDS011;2376;53.544;10.226;2022-11-12T13:14:43;6.97;;;6.40;;
4724;SDS011;2376;53.544;10.226;2022-11-12T13:17:40;7.63;;;6.30;;
4724;SDS011;2376;53.544;10.226;2022-11-12T13:20:16;9.33;;;8.30;;
4724;SDS011;2376;53.544;10.226;2022-11-12T13:22:58;7.70;;;7.00;;
4724;SDS011;2376;53.544;10.226;2022-11-12T13:25:26;12.17;;;7.60;;
4724;SDS011;2376;53.544;10.226;2022-11-12T13:28:02;8.90;;;7.13;;
4724;SDS011;2376;53.544;10.226;2022-11-12T13:33:26;12.43;;;8.13;;
4724;SDS011;2376;53.544;10.226;2022-11-12T13:38:52;9.07;;;7.60;;
4724;SDS011;2376;53.544;10.226;2022-11-12T13:41:21;12.33;;;6.70;;
4724;SDS011;2376;53.544;10.226;2022-11-12T13:44:03;9.50;;;6.50;;
4724;SDS011;2376;53.544;10.226;2022-11-12T13:46:32;8.00;;;7.30;;
4724;SDS011;2376;53.544;10.226;2022-11-12T13:49:00;9.47;;;6.47;;
4724;SDS011;2376;53.544;10.226;2022-11-12T13:51:36;9.90;;;7.00;;
4724;SDS011;2376;53.544;10.226;2022-11-12T13:56:53;12.87;;;7.50;;
4724;SDS011;2376;53.544;10.226;2022-11-12T13:59:21;9.60;;;7.50;;
4724;SDS011;2376;53.544;10.226;2022-11-12T14:01:49;6.90;;;6.27;;
4724;SDS011;2376;53.544;10.226;2022-11-12T14:04:16;13.87;;;6.67;;
4724;SDS011;2376;53.544;10.226;2022-11-12T14:06:48;9.13;;;6.53;;
4724;SDS011;2376;53.544;10.226;2022-11-12T14:09:22;9.33;;;8.33;;
4724;SDS011;2376;53.544;10.226;2022-11-12T14:12:20;7.13;;;5.90;;
4724;SDS011;2376;53.544;10.226;2022-11-12T14:15:06;7.20;;;6.00;;
4724;SDS011;2376;53.544;10.226;2022-11-12T14:17:42;9.90;;;6.00;;
4724;SDS011;2376;53.544;10.226;2022-11-12T14:20:22;7.47;;;6.57;;
4724;SDS011;2376;53.544;10.226;2022-11-12T14:22:50;7.10;;;5.10;;
4724;SDS011;2376;53.544;10.226;2022-11-12T14:25:20;5.83;;;5.23;;
4724;SDS011;2376;53.544;10.226;2022-11-12T14:27:49;6.23;;;5.63;;
4724;SDS011;2376;53.544;10.226;2022-11-12T14:30:20;6.10;;;5.23;;
4724;SDS011;2376;53.544;10.226;2022-11-12T14:32:49;11.10;;;8.27;;
4724;SDS011;2376;53.544;10.226;2022-11-12T14:35:31;6.33;;;5.73;;
4724;SDS011;2376;53.544;10.226;2022-11-12T14:38:10;9.87;;;6.70;;
4724;SDS011;2376;53.544;10.226;2022-11-12T14:40:46;7.90;;;6.53;;
4724;SDS011;2376;53.544;10.226;2022-11-12T14:43:16;9.03;;;6.33;;
4724;SDS011;2376;53.544;10.226;2022-11-12T14:45:47;7.47;;;6.07;;
4724;SDS011;2376;53.544;10.226;2022-11-12T14:48:14;7.53;;;5.20;;
4724;SDS011;2376;53.544;10.226;2022-11-12T14:50:42;8.60;;;6.40;;
4724;SDS011;2376;53.544;10.226;2022-11-12T14:53:12;7.63;;;6.97;;
4724;SDS011;2376;53.544;10.226;2022-11-12T14:55:43;7.13;;;6.47;;
4724;SDS011;2376;53.544;10.226;2022-11-12T14:58:17;10.03;;;7.67;;
4724;SDS011;2376;53.544;10.226;2022-11-12T15:00:46;13.63;;;8.03;;
4724;SDS011;2376;53.544;10.226;2022-11-12T15:03:14;11.40;;;7.60;;
4724;SDS011;2376;53.544;10.226;2022-11-12T15:05:51;9.60;;;6.50;;
4724;SDS011;2376;53.544;10.226;2022-11-12T15:08:31;7.80;;;6.50;;
4724;SDS011;2376;53.544;10.226;2022-11-12T15:13:48;8.07;;;5.90;;
4724;SDS011;2376;53.544;10.226;2022-11-12T15:16:18;9.83;;;6.77;;
4724;SDS011;2376;53.544;10.226;2022-11-12T15:18:57;7.50;;;6.70;;